sensor_id;sensor_type;location;lat;lon;timestamp;P1;durP1;ratioP1;P2;durP2;ratioP2
40729;SDS011;26418;50.070;8.436;2023-07-22T00:00:20;6.85;;;2.90;;
40729;SDS011;26418;50.070;8.436;2023-07-22T00:02:47;3.80;;;2.83;;
40729;SDS011;26418;50.070;8.436;2023-07-22T00:05:13;5.43;;;3.35;;
40729;SDS011;26418;50.070;8.436;2023-07-22T00:07:39;5.32;;;3.35;;
40729;SDS011;26418;50.070;8.436;2023-07-22T00:10:05;3.30;;;2.72;;
40729;SDS011;26418;50.070;8.436;2023-07-22T00:12:34;4.38;;;2.80;;
40729;SDS011;26418;50.070;8.436;2023-07-22T00:15:00;4.20;;;3.47;;
40729;SDS011;26418;50.070;8.436;2023-07-22T00:17:25;2.80;;;2.33;;
40729;SDS011;26418;50.070;8.436;2023-07-22T00:19:51;3.85;;;2.83;;
40729;SDS011;26418;50.070;8.436;2023-07-22T00:22:16;5.63;;;3.35;;
40729;SDS011;26418;50.070;8.436;2023-07-22T00:24:42;4.95;;;3.20;;
40729;SDS011;26418;50.070;8.436;2023-07-22T00:27:08;5.57;;;3.65;;
40729;SDS011;26418;50.070;8.436;2023-07-22T00:29:36;5.68;;;3.28;;
40729;SDS011;26418;50.070;8.436;2023-07-22T00:32:02;5.40;;;3.53;;
40729;SDS011;26418;50.070;8.436;2023-07-22T00:34:30;8.48;;;3.63;;
40729;SDS011;26418;50.070;8.436;2023-07-22T00:36:56;6.13;;;3.30;;
40729;SDS011;26418;50.070;8.436;2023-07-22T00:39:21;4.70;;;3.42;;
40729;SDS011;26418;50.070;8.436;2023-07-22T00:41:47;6.57;;;3.80;;
40729;SDS011;26418;50.070;8.436;2023-07-22T00:44:13;4.55;;;3.38;;
40729;SDS011;26418;50.070;8.436;2023-07-22T00:46:38;5.15;;;3.47;;
40729;SDS011;26418;50.070;8.436;2023-07-22T00:49:05;4.35;;;3.30;;
40729;SDS011;26418;50.070;8.436;2023-07-22T00:51:32;6.65;;;3.42;;
40729;SDS011;26418;50.070;8.436;2023-07-22T00:53:58;5.05;;;3.55;;
40729;SDS011;26418;50.070;8.436;2023-07-22T00:56:24;5.55;;;3.63;;
40729;SDS011;26418;50.070;8.436;2023-07-22T00:58:50;5.38;;;4.28;;
40729;SDS011;26418;50.070;8.436;2023-07-22T01:01:16;5.57;;;3.78;;
40729;SDS011;26418;50.070;8.436;2023-07-22T01:03:42;6.70;;;3.65;;
40729;SDS011;26418;50.070;8.436;2023-07-22T01:06:08;5.70;;;3.63;;
40729;SDS011;26418;50.070;8.436;2023-07-22T01:08:35;7.07;;;3.53;;
40729;SDS011;26418;50.070;8.436;2023-07-22T01:11:00;4.30;;;3.72;;
40729;SDS011;26418;50.070;8.436;2023-07-22T01:13:26;5.28;;;3.80;;
40729;SDS011;26418;50.070;8.436;2023-07-22T01:15:52;4.68;;;3.75;;
40729;SDS011;26418;50.070;8.436;2023-07-22T01:18:18;6.40;;;5.13;;
40729;SDS011;26418;50.070;8.436;2023-07-22T01:20:43;4.22;;;3.70;;
40729;SDS011;26418;50.070;8.436;2023-07-22T01:23:11;8.23;;;4.85;;
40729;SDS011;26418;50.070;8.436;2023-07-22T01:25:37;7.60;;;4.85;;
40729;SDS011;26418;50.070;8.436;2023-07-22T01:28:02;6.75;;;4.47;;
40729;SDS011;26418;50.070;8.436;2023-07-22T01:30:28;6.40;;;5.15;;
40729;SDS011;26418;50.070;8.436;2023-07-22T01:32:54;6.68;;;5.13;;
40729;SDS011;26418;50.070;8.436;2023-07-22T01:35:19;7.57;;;4.60;;
40729;SDS011;26418;50.070;8.436;2023-07-22T01:37:45;5.15;;;3.63;;
40729;SDS011;26418;50.070;8.436;2023-07-22T01:40:11;8.05;;;4.40;;
40729;SDS011;26418;50.070;8.436;2023-07-22T01:42:41;5.22;;;3.88;;
40729;SDS011;26418;50.070;8.436;2023-07-22T01:45:08;5.30;;;3.63;;
40729;SDS011;26418;50.070;8.436;2023-07-22T01:47:34;5.85;;;4.20;;
40729;SDS011;26418;50.070;8.436;2023-07-22T01:50:01;5.75;;;4.07;;
40729;SDS011;26418;50.070;8.436;2023-07-22T01:52:31;7.45;;;3.80;;
40729;SDS011;26418;50.070;8.436;2023-07-22T01:54:57;5.93;;;4.05;;
40729;SDS011;26418;50.070;8.436;2023-07-22T01:57:23;4.53;;;3.42;;
40729;SDS011;26418;50.070;8.436;2023-07-22T01:59:48;7.80;;;4.30;;
40729;SDS011;26418;50.070;8.436;2023-07-22T02:02:14;8.45;;;4.60;;
40729;SDS011;26418;50.070;8.436;2023-07-22T02:04:39;5.07;;;3.63;;
40729;SDS011;26418;50.070;8.436;2023-07-22T02:07:05;6.28;;;4.20;;
40729;SDS011;26418;50.070;8.436;2023-07-22T02:09:31;6.00;;;4.13;;
40729;SDS011;26418;50.070;8.436;2023-07-22T02:11:58;5.32;;;4.18;;
40729;SDS011;26418;50.070;8.436;2023-07-22T02:14:23;5.30;;;4.07;;
40729;SDS011;26418;50.070;8.436;2023-07-22T02:16:49;7.72;;;3.95;;
40729;SDS011;26418;50.070;8.436;2023-07-22T02:19:15;6.95;;;4.15;;
40729;SDS011;26418;50.070;8.436;2023-07-22T02:21:41;7.65;;;5.22;;
40729;SDS011;26418;50.070;8.436;2023-07-22T02:24:07;6.75;;;4.95;;
40729;SDS011;26418;50.070;8.436;2023-07-22T02:26:33;7.43;;;5.03;;
40729;SDS011;26418;50.070;8.436;2023-07-22T02:28:58;5.93;;;4.53;;
40729;SDS011;26418;50.070;8.436;2023-07-22T02:31:24;9.38;;;5.00;;
40729;SDS011;26418;50.070;8.436;2023-07-22T02:33:50;9.55;;;5.22;;
40729;SDS011;26418;50.070;8.436;2023-07-22T02:36:16;8.50;;;4.85;;
40729;SDS011;26418;50.070;8.436;2023-07-22T02:38:41;10.75;;;5.45;;
40729;SDS011;26418;50.070;8.436;2023-07-22T02:41:06;7.75;;;5.10;;
40729;SDS011;26418;50.070;8.436;2023-07-22T02:43:33;9.40;;;5.57;;
40729;SDS011;26418;50.070;8.436;2023-07-22T02:46:03;8.93;;;5.25;;
40729;SDS011;26418;50.070;8.436;2023-07-22T02:51:07;9.57;;;6.07;;
40729;SDS011;26418;50.070;8.436;2023-07-22T02:53:34;7.60;;;5.72;;
40729;SDS011;26418;50.070;8.436;2023-07-22T02:56:03;10.57;;;6.35;;
40729;SDS011;26418;50.070;8.436;2023-07-22T02:58:32;10.18;;;6.22;;
40729;SDS011;26418;50.070;8.436;2023-07-22T03:00:58;8.35;;;5.78;;
40729;SDS011;26418;50.070;8.436;2023-07-22T03:03:24;7.93;;;5.60;;
40729;SDS011;26418;50.070;8.436;2023-07-22T03:05:49;7.57;;;5.85;;
40729;SDS011;26418;50.070;8.436;2023-07-22T03:08:16;10.85;;;6.07;;
40729;SDS011;26418;50.070;8.436;2023-07-22T03:10:42;7.88;;;5.32;;
40729;SDS011;26418;50.070;8.436;2023-07-22T03:13:13;10.93;;;5.78;;
40729;SDS011;26418;50.070;8.436;2023-07-22T03:15:41;8.43;;;5.97;;
40729;SDS011;26418;50.070;8.436;2023-07-22T03:18:07;10.27;;;6.07;;
40729;SDS011;26418;50.070;8.436;2023-07-22T03:20:35;10.60;;;5.93;;
40729;SDS011;26418;50.070;8.436;2023-07-22T03:23:02;10.88;;;6.22;;
40729;SDS011;26418;50.070;8.436;2023-07-22T03:25:27;11.15;;;6.05;;
40729;SDS011;26418;50.070;8.436;2023-07-22T03:27:53;10.88;;;6.00;;
40729;SDS011;26418;50.070;8.436;2023-07-22T03:30:21;12.23;;;5.50;;
40729;SDS011;26418;50.070;8.436;2023-07-22T03:32:48;10.48;;;6.28;;
40729;SDS011;26418;50.070;8.436;2023-07-22T03:35:15;8.95;;;5.95;;
40729;SDS011;26418;50.070;8.436;2023-07-22T03:37:42;11.18;;;5.90;;
40729;SDS011;26418;50.070;8.436;2023-07-22T03:40:08;8.70;;;5.60;;
40729;SDS011;26418;50.070;8.436;2023-07-22T03:42:51;6.57;;;5.30;;
40729;SDS011;26418;50.070;8.436;2023-07-22T03:45:18;7.88;;;5.65;;
40729;SDS011;26418;50.070;8.436;2023-07-22T03:47:44;10.93;;;5.97;;
40729;SDS011;26418;50.070;8.436;2023-07-22T03:50:11;11.40;;;6.13;;
40729;SDS011;26418;50.070;8.436;2023-07-22T03:52:37;9.15;;;5.70;;
40729;SDS011;26418;50.070;8.436;2023-07-22T03:55:03;10.57;;;6.15;;
40729;SDS011;26418;50.070;8.436;2023-07-22T03:57:30;9.63;;;5.60;;
40729;SDS011;26418;50.070;8.436;2023-07-22T03:59:56;7.60;;;5.88;;
40729;SDS011;26418;50.070;8.436;2023-07-22T04:02:22;10.13;;;5.43;;
40729;SDS011;26418;50.070;8.436;2023-07-22T04:04:49;8.07;;;5.72;;
40729;SDS011;26418;50.070;8.436;2023-07-22T04:07:15;9.88;;;6.13;;
40729;SDS011;26418;50.070;8.436;2023-07-22T04:09:41;7.57;;;5.30;;
40729;SDS011;26418;50.070;8.436;2023-07-22T04:12:07;7.88;;;5.57;;
40729;SDS011;26418;50.070;8.436;2023-07-22T04:14:33;7.97;;;5.93;;
40729;SDS011;26418;50.070;8.436;2023-07-22T04:16:58;8.30;;;5.55;;
40729;SDS011;26418;50.070;8.436;2023-07-22T04:19:24;9.50;;;5.65;;
40729;SDS011;26418;50.070;8.436;2023-07-22T04:21:49;8.07;;;5.20;;
40729;SDS011;26418;50.070;8.436;2023-07-22T04:24:15;8.73;;;6.05;;
40729;SDS011;26418;50.070;8.436;2023-07-22T04:26:44;6.68;;;5.63;;
40729;SDS011;26418;50.070;8.436;2023-07-22T04:29:10;8.85;;;5.65;;
40729;SDS011;26418;50.070;8.436;2023-07-22T04:31:37;8.45;;;5.68;;
40729;SDS011;26418;50.070;8.436;2023-07-22T04:34:03;10.20;;;5.28;;
40729;SDS011;26418;50.070;8.436;2023-07-22T04:36:28;6.72;;;5.43;;
40729;SDS011;26418;50.070;8.436;2023-07-22T04:38:54;7.93;;;5.60;;
40729;SDS011;26418;50.070;8.436;2023-07-22T04:41:19;7.47;;;5.30;;
40729;SDS011;26418;50.070;8.436;2023-07-22T04:43:46;7.90;;;5.70;;
40729;SDS011;26418;50.070;8.436;2023-07-22T04:46:12;8.73;;;5.10;;
40729;SDS011;26418;50.070;8.436;2023-07-22T04:48:38;10.40;;;5.63;;
40729;SDS011;26418;50.070;8.436;2023-07-22T04:51:04;9.18;;;6.22;;
40729;SDS011;26418;50.070;8.436;2023-07-22T04:53:29;6.55;;;5.45;;
40729;SDS011;26418;50.070;8.436;2023-07-22T04:55:55;8.60;;;4.30;;
40729;SDS011;26418;50.070;8.436;2023-07-22T04:58:20;5.50;;;4.55;;
40729;SDS011;26418;50.070;8.436;2023-07-22T05:00:46;6.13;;;4.18;;
40729;SDS011;26418;50.070;8.436;2023-07-22T05:03:13;6.47;;;4.95;;
40729;SDS011;26418;50.070;8.436;2023-07-22T05:05:39;7.13;;;4.50;;
40729;SDS011;26418;50.070;8.436;2023-07-22T05:08:05;5.22;;;4.55;;
40729;SDS011;26418;50.070;8.436;2023-07-22T05:10:32;8.45;;;4.53;;
40729;SDS011;26418;50.070;8.436;2023-07-22T05:12:58;6.63;;;4.90;;
40729;SDS011;26418;50.070;8.436;2023-07-22T05:15:23;9.90;;;5.03;;
40729;SDS011;26418;50.070;8.436;2023-07-22T05:17:49;6.20;;;4.50;;
40729;SDS011;26418;50.070;8.436;2023-07-22T05:20:15;10.65;;;5.93;;
40729;SDS011;26418;50.070;8.436;2023-07-22T05:22:40;9.00;;;6.35;;
40729;SDS011;26418;50.070;8.436;2023-07-22T05:25:07;8.10;;;5.05;;
40729;SDS011;26418;50.070;8.436;2023-07-22T05:27:34;9.70;;;5.30;;
40729;SDS011;26418;50.070;8.436;2023-07-22T05:30:00;5.88;;;4.70;;
40729;SDS011;26418;50.070;8.436;2023-07-22T05:32:27;7.22;;;5.03;;
40729;SDS011;26418;50.070;8.436;2023-07-22T05:34:54;9.25;;;5.95;;
40729;SDS011;26418;50.070;8.436;2023-07-22T05:37:23;5.50;;;4.57;;
40729;SDS011;26418;50.070;8.436;2023-07-22T05:39:49;6.65;;;5.32;;
40729;SDS011;26418;50.070;8.436;2023-07-22T05:42:14;10.32;;;5.30;;
40729;SDS011;26418;50.070;8.436;2023-07-22T05:44:40;7.70;;;5.68;;
40729;SDS011;26418;50.070;8.436;2023-07-22T05:47:05;7.35;;;5.97;;
40729;SDS011;26418;50.070;8.436;2023-07-22T05:49:31;8.65;;;4.93;;
40729;SDS011;26418;50.070;8.436;2023-07-22T05:51:56;14.50;;;7.57;;
40729;SDS011;26418;50.070;8.436;2023-07-22T05:54:22;9.63;;;5.95;;
40729;SDS011;26418;50.070;8.436;2023-07-22T05:56:48;8.88;;;5.68;;
40729;SDS011;26418;50.070;8.436;2023-07-22T05:59:13;8.70;;;5.05;;
40729;SDS011;26418;50.070;8.436;2023-07-22T06:01:39;8.63;;;5.70;;
40729;SDS011;26418;50.070;8.436;2023-07-22T06:04:05;7.22;;;4.97;;
40729;SDS011;26418;50.070;8.436;2023-07-22T06:06:31;5.90;;;4.68;;
40729;SDS011;26418;50.070;8.436;2023-07-22T06:08:57;7.28;;;5.35;;
40729;SDS011;26418;50.070;8.436;2023-07-22T06:11:22;7.57;;;5.47;;
40729;SDS011;26418;50.070;8.436;2023-07-22T06:13:48;11.30;;;6.13;;
40729;SDS011;26418;50.070;8.436;2023-07-22T06:16:14;9.15;;;5.45;;
40729;SDS011;26418;50.070;8.436;2023-07-22T06:18:39;11.15;;;6.50;;
40729;SDS011;26418;50.070;8.436;2023-07-22T06:21:05;10.32;;;6.43;;
40729;SDS011;26418;50.070;8.436;2023-07-22T06:23:31;7.60;;;5.70;;
40729;SDS011;26418;50.070;8.436;2023-07-22T06:25:56;7.22;;;5.28;;
40729;SDS011;26418;50.070;8.436;2023-07-22T06:28:22;6.50;;;4.35;;
40729;SDS011;26418;50.070;8.436;2023-07-22T06:30:48;8.70;;;5.00;;
40729;SDS011;26418;50.070;8.436;2023-07-22T06:33:13;6.57;;;4.78;;
40729;SDS011;26418;50.070;8.436;2023-07-22T06:35:39;7.13;;;4.75;;
40729;SDS011;26418;50.070;8.436;2023-07-22T06:38:04;9.18;;;5.95;;
40729;SDS011;26418;50.070;8.436;2023-07-22T06:40:30;8.70;;;5.20;;
40729;SDS011;26418;50.070;8.436;2023-07-22T06:42:55;7.68;;;5.57;;
40729;SDS011;26418;50.070;8.436;2023-07-22T06:45:21;6.30;;;4.22;;
40729;SDS011;26418;50.070;8.436;2023-07-22T06:47:47;5.05;;;4.00;;
40729;SDS011;26418;50.070;8.436;2023-07-22T06:50:12;9.52;;;4.78;;
40729;SDS011;26418;50.070;8.436;2023-07-22T06:52:38;6.10;;;4.57;;
40729;SDS011;26418;50.070;8.436;2023-07-22T06:55:04;9.70;;;5.00;;
40729;SDS011;26418;50.070;8.436;2023-07-22T06:57:30;6.65;;;4.57;;
40729;SDS011;26418;50.070;8.436;2023-07-22T06:59:56;7.63;;;4.68;;
40729;SDS011;26418;50.070;8.436;2023-07-22T07:02:22;8.50;;;5.35;;
40729;SDS011;26418;50.070;8.436;2023-07-22T07:04:48;5.30;;;4.32;;
40729;SDS011;26418;50.070;8.436;2023-07-22T07:07:15;7.72;;;5.13;;
40729;SDS011;26418;50.070;8.436;2023-07-22T07:09:41;7.72;;;5.32;;
40729;SDS011;26418;50.070;8.436;2023-07-22T07:12:07;5.97;;;4.53;;
40729;SDS011;26418;50.070;8.436;2023-07-22T07:14:33;6.43;;;4.57;;
40729;SDS011;26418;50.070;8.436;2023-07-22T07:16:59;7.47;;;4.90;;
40729;SDS011;26418;50.070;8.436;2023-07-22T07:19:25;8.10;;;4.60;;
40729;SDS011;26418;50.070;8.436;2023-07-22T07:21:51;5.93;;;4.50;;
40729;SDS011;26418;50.070;8.436;2023-07-22T07:24:17;7.00;;;5.32;;
40729;SDS011;26418;50.070;8.436;2023-07-22T07:26:43;8.25;;;5.00;;
40729;SDS011;26418;50.070;8.436;2023-07-22T07:29:09;11.95;;;6.50;;
40729;SDS011;26418;50.070;8.436;2023-07-22T07:31:36;6.18;;;4.80;;
40729;SDS011;26418;50.070;8.436;2023-07-22T07:34:02;7.07;;;5.53;;
40729;SDS011;26418;50.070;8.436;2023-07-22T07:36:28;6.82;;;5.00;;
40729;SDS011;26418;50.070;8.436;2023-07-22T07:38:53;7.18;;;4.90;;
40729;SDS011;26418;50.070;8.436;2023-07-22T07:41:19;6.95;;;4.43;;
40729;SDS011;26418;50.070;8.436;2023-07-22T07:43:44;8.80;;;4.95;;
40729;SDS011;26418;50.070;8.436;2023-07-22T07:48:58;7.60;;;5.05;;
40729;SDS011;26418;50.070;8.436;2023-07-22T07:51:29;8.05;;;4.60;;
40729;SDS011;26418;50.070;8.436;2023-07-22T07:53:56;7.97;;;5.97;;
40729;SDS011;26418;50.070;8.436;2023-07-22T07:56:23;8.73;;;4.90;;
40729;SDS011;26418;50.070;8.436;2023-07-22T07:58:50;12.05;;;6.18;;
40729;SDS011;26418;50.070;8.436;2023-07-22T08:01:17;5.85;;;4.50;;
40729;SDS011;26418;50.070;8.436;2023-07-22T08:03:43;7.13;;;4.90;;
40729;SDS011;26418;50.070;8.436;2023-07-22T08:06:09;7.82;;;4.68;;
40729;SDS011;26418;50.070;8.436;2023-07-22T08:08:36;6.47;;;4.30;;
40729;SDS011;26418;50.070;8.436;2023-07-22T08:11:06;8.77;;;4.35;;
40729;SDS011;26418;50.070;8.436;2023-07-22T08:13:33;7.75;;;4.43;;
40729;SDS011;26418;50.070;8.436;2023-07-22T08:16:01;6.65;;;4.45;;
40729;SDS011;26418;50.070;8.436;2023-07-22T08:18:28;7.82;;;4.35;;
40729;SDS011;26418;50.070;8.436;2023-07-22T08:20:54;9.30;;;4.43;;
40729;SDS011;26418;50.070;8.436;2023-07-22T08:23:20;12.18;;;6.72;;
40729;SDS011;26418;50.070;8.436;2023-07-22T08:25:45;9.40;;;5.35;;
40729;SDS011;26418;50.070;8.436;2023-07-22T08:28:11;7.47;;;5.65;;
40729;SDS011;26418;50.070;8.436;2023-07-22T08:30:36;6.00;;;4.95;;
40729;SDS011;26418;50.070;8.436;2023-07-22T08:33:02;9.90;;;5.85;;
40729;SDS011;26418;50.070;8.436;2023-07-22T08:35:27;8.13;;;5.18;;
40729;SDS011;26418;50.070;8.436;2023-07-22T08:37:53;9.05;;;5.28;;
40729;SDS011;26418;50.070;8.436;2023-07-22T08:40:19;12.13;;;4.90;;
40729;SDS011;26418;50.070;8.436;2023-07-22T08:42:45;10.52;;;4.80;;
40729;SDS011;26418;50.070;8.436;2023-07-22T08:45:13;8.60;;;4.40;;
40729;SDS011;26418;50.070;8.436;2023-07-22T08:47:43;6.93;;;4.13;;
40729;SDS011;26418;50.070;8.436;2023-07-22T08:50:11;7.32;;;4.70;;
40729;SDS011;26418;50.070;8.436;2023-07-22T08:52:45;7.57;;;4.15;;
40729;SDS011;26418;50.070;8.436;2023-07-22T08:55:11;6.88;;;4.32;;
40729;SDS011;26418;50.070;8.436;2023-07-22T08:57:38;7.72;;;5.65;;
40729;SDS011;26418;50.070;8.436;2023-07-22T09:00:04;5.75;;;4.25;;
40729;SDS011;26418;50.070;8.436;2023-07-22T09:02:34;7.35;;;4.30;;
40729;SDS011;26418;50.070;8.436;2023-07-22T09:05:01;5.25;;;3.83;;
40729;SDS011;26418;50.070;8.436;2023-07-22T09:07:27;5.40;;;4.55;;
40729;SDS011;26418;50.070;8.436;2023-07-22T09:09:53;5.95;;;4.68;;
40729;SDS011;26418;50.070;8.436;2023-07-22T09:12:21;5.25;;;4.00;;
40729;SDS011;26418;50.070;8.436;2023-07-22T09:14:47;12.10;;;4.13;;
40729;SDS011;26418;50.070;8.436;2023-07-22T09:17:15;4.60;;;3.80;;
40729;SDS011;26418;50.070;8.436;2023-07-22T09:19:40;7.47;;;4.22;;
40729;SDS011;26418;50.070;8.436;2023-07-22T09:22:07;7.05;;;4.25;;
40729;SDS011;26418;50.070;8.436;2023-07-22T09:24:33;7.68;;;4.85;;
40729;SDS011;26418;50.070;8.436;2023-07-22T09:26:58;8.13;;;4.55;;
40729;SDS011;26418;50.070;8.436;2023-07-22T09:29:35;6.72;;;4.80;;
40729;SDS011;26418;50.070;8.436;2023-07-22T09:32:05;9.07;;;4.28;;
40729;SDS011;26418;50.070;8.436;2023-07-22T09:34:31;4.28;;;3.55;;
40729;SDS011;26418;50.070;8.436;2023-07-22T09:36:57;5.85;;;4.35;;
40729;SDS011;26418;50.070;8.436;2023-07-22T09:41:57;4.75;;;3.35;;
40729;SDS011;26418;50.070;8.436;2023-07-22T09:44:32;4.90;;;3.80;;
40729;SDS011;26418;50.070;8.436;2023-07-22T09:46:57;5.65;;;4.35;;
40729;SDS011;26418;50.070;8.436;2023-07-22T09:49:23;7.80;;;3.92;;
40729;SDS011;26418;50.070;8.436;2023-07-22T09:51:50;6.70;;;3.47;;
40729;SDS011;26418;50.070;8.436;2023-07-22T09:54:17;6.47;;;3.25;;
40729;SDS011;26418;50.070;8.436;2023-07-22T09:56:45;5.78;;;3.95;;
40729;SDS011;26418;50.070;8.436;2023-07-22T09:59:14;7.13;;;3.35;;
40729;SDS011;26418;50.070;8.436;2023-07-22T10:01:42;6.85;;;3.40;;
40729;SDS011;26418;50.070;8.436;2023-07-22T10:04:11;4.72;;;3.88;;
40729;SDS011;26418;50.070;8.436;2023-07-22T10:06:40;5.38;;;3.53;;
40729;SDS011;26418;50.070;8.436;2023-07-22T10:09:08;7.10;;;4.63;;
40729;SDS011;26418;50.070;8.436;2023-07-22T10:11:36;8.13;;;4.55;;
40729;SDS011;26418;50.070;8.436;2023-07-22T10:14:02;5.18;;;3.22;;
40729;SDS011;26418;50.070;8.436;2023-07-22T10:16:29;7.25;;;4.15;;
40729;SDS011;26418;50.070;8.436;2023-07-22T10:18:55;7.13;;;3.72;;
40729;SDS011;26418;50.070;8.436;2023-07-22T10:21:23;5.38;;;3.80;;
40729;SDS011;26418;50.070;8.436;2023-07-22T10:23:49;5.70;;;3.78;;
40729;SDS011;26418;50.070;8.436;2023-07-22T10:26:16;6.80;;;4.20;;
40729;SDS011;26418;50.070;8.436;2023-07-22T10:28:43;11.52;;;3.92;;
40729;SDS011;26418;50.070;8.436;2023-07-22T10:31:10;22.80;;;6.53;;
40729;SDS011;26418;50.070;8.436;2023-07-22T10:33:35;8.02;;;4.30;;
40729;SDS011;26418;50.070;8.436;2023-07-22T10:36:08;7.80;;;3.65;;
40729;SDS011;26418;50.070;8.436;2023-07-22T10:38:38;7.00;;;3.17;;
40729;SDS011;26418;50.070;8.436;2023-07-22T10:41:16;5.70;;;3.80;;
40729;SDS011;26418;50.070;8.436;2023-07-22T10:43:42;5.38;;;3.80;;
40729;SDS011;26418;50.070;8.436;2023-07-22T10:46:20;6.75;;;4.05;;
40729;SDS011;26418;50.070;8.436;2023-07-22T10:49:13;5.03;;;3.25;;
40729;SDS011;26418;50.070;8.436;2023-07-22T10:51:41;6.20;;;4.15;;
40729;SDS011;26418;50.070;8.436;2023-07-22T10:54:10;5.18;;;3.42;;
40729;SDS011;26418;50.070;8.436;2023-07-22T10:56:37;8.95;;;4.53;;
40729;SDS011;26418;50.070;8.436;2023-07-22T11:01:35;6.32;;;3.20;;
40729;SDS011;26418;50.070;8.436;2023-07-22T11:06:27;8.00;;;3.63;;
40729;SDS011;26418;50.070;8.436;2023-07-22T11:08:55;5.15;;;3.58;;
40729;SDS011;26418;50.070;8.436;2023-07-22T11:11:20;5.65;;;3.50;;
40729;SDS011;26418;50.070;8.436;2023-07-22T11:13:46;7.50;;;4.50;;
40729;SDS011;26418;50.070;8.436;2023-07-22T11:16:11;4.72;;;3.85;;
40729;SDS011;26418;50.070;8.436;2023-07-22T11:18:40;5.90;;;3.95;;
40729;SDS011;26418;50.070;8.436;2023-07-22T11:21:07;6.00;;;3.80;;
40729;SDS011;26418;50.070;8.436;2023-07-22T11:23:36;7.35;;;3.85;;
40729;SDS011;26418;50.070;8.436;2023-07-22T11:26:02;6.05;;;3.85;;
40729;SDS011;26418;50.070;8.436;2023-07-22T11:28:29;5.15;;;3.78;;
40729;SDS011;26418;50.070;8.436;2023-07-22T11:30:56;5.07;;;3.92;;
40729;SDS011;26418;50.070;8.436;2023-07-22T11:33:21;8.18;;;3.80;;
40729;SDS011;26418;50.070;8.436;2023-07-22T11:35:47;6.85;;;3.92;;
40729;SDS011;26418;50.070;8.436;2023-07-22T11:38:12;6.78;;;4.35;;
40729;SDS011;26418;50.070;8.436;2023-07-22T11:40:38;6.97;;;3.90;;
40729;SDS011;26418;50.070;8.436;2023-07-22T11:43:04;6.47;;;3.85;;
40729;SDS011;26418;50.070;8.436;2023-07-22T11:45:30;6.88;;;4.00;;
40729;SDS011;26418;50.070;8.436;2023-07-22T11:47:56;5.22;;;3.75;;
40729;SDS011;26418;50.070;8.436;2023-07-22T11:50:31;6.85;;;4.10;;
40729;SDS011;26418;50.070;8.436;2023-07-22T11:52:58;9.82;;;3.90;;
40729;SDS011;26418;50.070;8.436;2023-07-22T11:55:24;8.10;;;3.67;;
40729;SDS011;26418;50.070;8.436;2023-07-22T11:57:55;4.45;;;3.22;;
40729;SDS011;26418;50.070;8.436;2023-07-22T12:02:46;5.90;;;3.60;;
40729;SDS011;26418;50.070;8.436;2023-07-22T12:05:19;7.57;;;4.20;;
40729;SDS011;26418;50.070;8.436;2023-07-22T12:07:46;6.88;;;4.55;;
40729;SDS011;26418;50.070;8.436;2023-07-22T12:10:12;8.13;;;4.22;;
40729;SDS011;26418;50.070;8.436;2023-07-22T12:15:16;5.40;;;4.07;;
40729;SDS011;26418;50.070;8.436;2023-07-22T12:20:09;7.07;;;3.33;;
40729;SDS011;26418;50.070;8.436;2023-07-22T12:22:35;6.55;;;3.47;;
40729;SDS011;26418;50.070;8.436;2023-07-22T12:25:00;6.00;;;4.13;;
40729;SDS011;26418;50.070;8.436;2023-07-22T12:27:26;10.55;;;4.00;;
40729;SDS011;26418;50.070;8.436;2023-07-22T12:29:51;4.93;;;3.50;;
40729;SDS011;26418;50.070;8.436;2023-07-22T12:32:17;7.60;;;3.95;;
40729;SDS011;26418;50.070;8.436;2023-07-22T12:34:42;7.90;;;3.95;;
40729;SDS011;26418;50.070;8.436;2023-07-22T12:37:08;7.90;;;4.05;;
40729;SDS011;26418;50.070;8.436;2023-07-22T12:39:33;5.55;;;3.35;;
40729;SDS011;26418;50.070;8.436;2023-07-22T12:41:59;6.10;;;3.88;;
40729;SDS011;26418;50.070;8.436;2023-07-22T12:44:25;4.10;;;3.22;;
40729;SDS011;26418;50.070;8.436;2023-07-22T12:46:50;5.28;;;3.33;;
40729;SDS011;26418;50.070;8.436;2023-07-22T12:49:18;9.25;;;3.28;;
40729;SDS011;26418;50.070;8.436;2023-07-22T12:51:44;4.53;;;3.70;;
40729;SDS011;26418;50.070;8.436;2023-07-22T12:54:09;6.65;;;3.30;;
40729;SDS011;26418;50.070;8.436;2023-07-22T12:56:35;7.78;;;3.17;;
40729;SDS011;26418;50.070;8.436;2023-07-22T12:59:00;6.20;;;3.85;;
40729;SDS011;26418;50.070;8.436;2023-07-22T13:01:26;6.45;;;3.55;;
40729;SDS011;26418;50.070;8.436;2023-07-22T13:03:51;7.47;;;3.88;;
40729;SDS011;26418;50.070;8.436;2023-07-22T13:06:16;4.22;;;3.35;;
40729;SDS011;26418;50.070;8.436;2023-07-22T13:08:42;4.60;;;3.38;;
40729;SDS011;26418;50.070;8.436;2023-07-22T13:11:08;7.70;;;3.40;;
40729;SDS011;26418;50.070;8.436;2023-07-22T13:13:33;4.75;;;3.42;;
40729;SDS011;26418;50.070;8.436;2023-07-22T13:15:59;6.00;;;3.33;;
40729;SDS011;26418;50.070;8.436;2023-07-22T13:18:24;5.93;;;3.67;;
40729;SDS011;26418;50.070;8.436;2023-07-22T13:20:50;6.68;;;3.55;;
40729;SDS011;26418;50.070;8.436;2023-07-22T13:23:16;7.55;;;3.70;;
40729;SDS011;26418;50.070;8.436;2023-07-22T13:25:41;6.10;;;3.63;;
40729;SDS011;26418;50.070;8.436;2023-07-22T13:28:07;4.28;;;3.47;;
40729;SDS011;26418;50.070;8.436;2023-07-22T13:30:32;5.90;;;3.30;;
40729;SDS011;26418;50.070;8.436;2023-07-22T13:32:58;10.13;;;3.75;;
40729;SDS011;26418;50.070;8.436;2023-07-22T13:35:24;6.25;;;4.13;;
40729;SDS011;26418;50.070;8.436;2023-07-22T13:37:49;6.80;;;3.78;;
40729;SDS011;26418;50.070;8.436;2023-07-22T13:40:15;5.95;;;3.75;;
40729;SDS011;26418;50.070;8.436;2023-07-22T13:42:41;5.07;;;3.92;;
40729;SDS011;26418;50.070;8.436;2023-07-22T13:45:06;5.05;;;3.38;;
40729;SDS011;26418;50.070;8.436;2023-07-22T13:47:32;6.32;;;3.95;;
40729;SDS011;26418;50.070;8.436;2023-07-22T13:49:58;7.85;;;3.75;;
40729;SDS011;26418;50.070;8.436;2023-07-22T13:52:23;6.80;;;3.67;;
40729;SDS011;26418;50.070;8.436;2023-07-22T13:54:49;5.25;;;3.72;;
40729;SDS011;26418;50.070;8.436;2023-07-22T13:57:15;6.03;;;3.80;;
40729;SDS011;26418;50.070;8.436;2023-07-22T13:59:40;4.75;;;3.50;;
40729;SDS011;26418;50.070;8.436;2023-07-22T14:02:06;5.28;;;3.70;;
40729;SDS011;26418;50.070;8.436;2023-07-22T14:04:31;8.25;;;3.50;;
40729;SDS011;26418;50.070;8.436;2023-07-22T14:06:57;5.22;;;3.22;;
40729;SDS011;26418;50.070;8.436;2023-07-22T14:09:22;4.95;;;3.20;;
40729;SDS011;26418;50.070;8.436;2023-07-22T14:11:48;5.85;;;3.63;;
40729;SDS011;26418;50.070;8.436;2023-07-22T14:14:13;4.40;;;3.08;;
40729;SDS011;26418;50.070;8.436;2023-07-22T14:16:39;14.02;;;3.30;;
40729;SDS011;26418;50.070;8.436;2023-07-22T14:19:04;4.88;;;3.38;;
40729;SDS011;26418;50.070;8.436;2023-07-22T14:21:30;5.40;;;3.25;;
40729;SDS011;26418;50.070;8.436;2023-07-22T14:23:55;4.97;;;3.63;;
40729;SDS011;26418;50.070;8.436;2023-07-22T14:26:21;5.13;;;2.88;;
40729;SDS011;26418;50.070;8.436;2023-07-22T14:28:46;5.57;;;2.97;;
40729;SDS011;26418;50.070;8.436;2023-07-22T14:31:12;6.50;;;3.45;;
40729;SDS011;26418;50.070;8.436;2023-07-22T14:33:37;5.88;;;3.35;;
40729;SDS011;26418;50.070;8.436;2023-07-22T14:36:03;6.45;;;3.20;;
40729;SDS011;26418;50.070;8.436;2023-07-22T14:38:29;3.47;;;2.80;;
40729;SDS011;26418;50.070;8.436;2023-07-22T14:40:54;8.18;;;3.53;;
40729;SDS011;26418;50.070;8.436;2023-07-22T14:43:20;10.88;;;4.65;;
40729;SDS011;26418;50.070;8.436;2023-07-22T14:45:45;15.10;;;7.95;;
40729;SDS011;26418;50.070;8.436;2023-07-22T14:48:11;7.30;;;4.18;;
40729;SDS011;26418;50.070;8.436;2023-07-22T14:50:36;10.52;;;4.18;;
40729;SDS011;26418;50.070;8.436;2023-07-22T14:53:02;7.88;;;3.45;;
40729;SDS011;26418;50.070;8.436;2023-07-22T14:55:28;4.35;;;2.70;;
40729;SDS011;26418;50.070;8.436;2023-07-22T14:57:54;3.97;;;3.15;;
40729;SDS011;26418;50.070;8.436;2023-07-22T15:00:19;4.38;;;3.20;;